Time;durP1;ratioP1;P1;durP2;ratioP2;P2;SDS_P1;SDS_P2;PMS_P1;PMS_P2;Temp;Humidity;BMP_temperature;BMP_pressure;BME280_temperature;BME280_humidity;BME280_pressure;Samples;Min_cycle;Max_cycle;Signal;HPM_P1;HPM_P2
2023/03/17 00:00:24;;;;;;;12.03;4.77;;;;;;;;;;6244444;22;20203;-91
2023/03/17 00:04:03;;;;;;;11.20;3.73;;;;;;;;;;6246494;22;20193;-90
2023/03/17 00:07:08;;;;;;;7.73;3.60;;;;;;;;;;6245589;23;20210;-91
2023/03/17 00:10:20;;;;;;;9.30;3.63;;;;;;;;;;6244418;23;20166;-92
2023/03/17 00:13:25;;;;;;;6.93;3.07;;;;;;;;;;6245194;23;20155;-91
2023/03/17 00:16:32;;;;;;;10.40;3.23;;;;;;;;;;6245650;22;20154;-93
2023/03/17 00:19:37;;;;;;;6.83;3.10;;;;;;;;;;6246903;23;20166;-93
2023/03/17 00:22:44;;;;;;;10.03;3.57;;;;;;;;;;6247134;23;20190;-91
2023/03/17 00:25:53;;;;;;;8.97;3.77;;;;;;;;;;6245452;23;20191;-92
2023/03/17 00:28:58;;;;;;;9.07;3.83;;;;;;;;;;6245139;22;20177;-91
2023/03/17 00:32:03;;;;;;;9.07;3.73;;;;;;;;;;6246048;22;20150;-92
2023/03/17 00:35:16;;;;;;;10.73;4.07;;;;;;;;;;6247379;23;20166;-93
2023/03/17 00:38:23;;;;;;;10.63;3.97;;;;;;;;;;6247744;22;20167;-92
2023/03/17 00:41:30;;;;;;;9.40;3.40;;;;;;;;;;6244916;23;20166;-91
2023/03/17 00:44:35;;;;;;;8.37;3.70;;;;;;;;;;6246367;22;20170;-91
2023/03/17 00:47:41;;;;;;;8.10;3.03;;;;;;;;;;6246987;22;20238;-90
2023/03/17 00:50:47;;;;;;;8.07;2.57;;;;;;;;;;6245680;23;20217;-90
2023/03/17 00:53:52;;;;;;;5.87;2.87;;;;;;;;;;6246157;23;20167;-90
2023/03/17 00:57:00;;;;;;;6.77;2.57;;;;;;;;;;6245850;23;20183;-91
2023/03/17 01:00:06;;;;;;;7.03;2.97;;;;;;;;;;6246003;22;20146;-91
2023/03/17 01:03:14;;;;;;;6.87;2.93;;;;;;;;;;6246735;22;20243;-92
2023/03/17 01:06:19;;;;;;;7.63;2.90;;;;;;;;;;6244801;23;20167;-90
2023/03/17 01:09:26;;;;;;;9.33;3.37;;;;;;;;;;6245032;23;20206;-92
2023/03/17 01:12:33;;;;;;;6.10;2.63;;;;;;;;;;6243326;22;20215;-91
2023/03/17 01:15:40;;;;;;;5.63;2.60;;;;;;;;;;6243303;22;20154;-88
2023/03/17 01:18:45;;;;;;;6.33;2.60;;;;;;;;;;6244574;22;20154;-91
2023/03/17 01:22:16;;;;;;;7.17;2.50;;;;;;;;;;6244099;23;20201;-90
2023/03/17 01:25:22;;;;;;;7.27;2.67;;;;;;;;;;6244861;23;20162;-91
2023/03/17 01:28:29;;;;;;;4.63;2.40;;;;;;;;;;6241551;23;20221;-89
2023/03/17 01:31:35;;;;;;;10.63;2.90;;;;;;;;;;6242817;22;20178;-91
2023/03/17 01:34:40;;;;;;;7.60;2.30;;;;;;;;;;6243088;23;20217;-93
2023/03/17 01:37:45;;;;;;;4.80;2.13;;;;;;;;;;6245783;23;20166;-94
2023/03/17 01:40:52;;;;;;;6.23;2.80;;;;;;;;;;6241956;23;20182;-89
2023/03/17 01:43:58;;;;;;;5.50;2.37;;;;;;;;;;6241170;22;20629;-90
2023/03/17 01:47:04;;;;;;;16.23;4.50;;;;;;;;;;6241671;22;20142;-91
2023/03/17 01:50:10;;;;;;;14.97;5.33;;;;;;;;;;6243085;22;20171;-92
2023/03/17 01:53:17;;;;;;;6.87;3.27;;;;;;;;;;6241838;23;20166;-91
2023/03/17 01:56:23;;;;;;;16.53;6.13;;;;;;;;;;6241911;23;20170;-91
2023/03/17 01:59:32;;;;;;;6.03;2.53;;;;;;;;;;6240472;22;20170;-90
2023/03/17 02:03:04;;;;;;;10.40;2.63;;;;;;;;;;6241230;22;20189;-90
2023/03/17 02:06:10;;;;;;;8.13;2.67;;;;;;;;;;6242273;23;20179;-92
2023/03/17 02:09:17;;;;;;;5.03;2.17;;;;;;;;;;6240986;23;20193;-93
2023/03/17 02:12:23;;;;;;;6.30;2.80;;;;;;;;;;6241128;22;20170;-91
2023/03/17 02:15:39;;;;;;;7.63;2.50;;;;;;;;;;6241503;23;20227;-89
2023/03/17 02:18:44;;;;;;;7.43;2.93;;;;;;;;;;6243079;23;20166;-93
2023/03/17 02:21:56;;;;;;;4.40;2.50;;;;;;;;;;6242987;23;20234;-91
2023/03/17 02:25:03;;;;;;;5.83;2.67;;;;;;;;;;6259551;22;20162;-92
2023/03/17 02:28:12;;;;;;;6.90;2.50;;;;;;;;;;6241374;22;20272;-88
2023/03/17 02:31:17;;;;;;;4.90;2.47;;;;;;;;;;6242775;23;20165;-91
2023/03/17 02:34:25;;;;;;;6.93;2.97;;;;;;;;;;6243544;22;20209;-90
2023/03/17 02:37:32;;;;;;;6.87;3.00;;;;;;;;;;6243120;23;20166;-91
2023/03/17 02:40:37;;;;;;;9.47;2.70;;;;;;;;;;6241249;23;20158;-90
2023/03/17 02:43:43;;;;;;;10.40;3.10;;;;;;;;;;6242113;22;20182;-90
2023/03/17 02:46:48;;;;;;;5.70;3.00;;;;;;;;;;6242690;22;20150;-90
2023/03/17 02:49:54;;;;;;;5.10;2.70;;;;;;;;;;6245556;23;20217;-91
2023/03/17 02:53:01;;;;;;;5.93;3.00;;;;;;;;;;6243967;23;20166;-91
2023/03/17 02:56:06;;;;;;;6.97;2.93;;;;;;;;;;6241981;23;20241;-91
2023/03/17 02:59:12;;;;;;;7.40;2.90;;;;;;;;;;6241452;22;20230;-90
2023/03/17 03:02:56;;;;;;;5.67;2.80;;;;;;;;;;6240074;22;20151;-91
2023/03/17 03:06:02;;;;;;;7.07;3.03;;;;;;;;;;6242847;23;20171;-93
2023/03/17 03:09:10;;;;;;;5.97;2.70;;;;;;;;;;6242526;23;20251;-91
2023/03/17 03:12:15;;;;;;;6.00;2.70;;;;;;;;;;6243979;22;20150;-90
2023/03/17 03:15:21;;;;;;;7.53;3.47;;;;;;;;;;6246209;22;20150;-91
2023/03/17 03:18:27;;;;;;;6.93;2.80;;;;;;;;;;6245575;23;20174;-92
2023/03/17 03:21:32;;;;;;;6.60;2.63;;;;;;;;;;6245043;23;20167;-90
2023/03/17 03:24:39;;;;;;;10.80;3.20;;;;;;;;;;6244113;22;20178;-90
2023/03/17 03:27:45;;;;;;;6.20;2.67;;;;;;;;;;6243639;22;20170;-88
2023/03/17 03:30:51;;;;;;;5.90;2.83;;;;;;;;;;6244516;22;20178;-93
2023/03/17 03:33:56;;;;;;;10.40;2.43;;;;;;;;;;6245089;22;20221;-90
2023/03/17 03:37:01;;;;;;;6.30;2.90;;;;;;;;;;6243751;23;20166;-91
2023/03/17 03:40:08;;;;;;;8.20;2.70;;;;;;;;;;6243236;23;20170;-92
2023/03/17 03:43:14;;;;;;;6.70;3.03;;;;;;;;;;6241487;23;20166;-89
2023/03/17 03:46:19;;;;;;;9.67;3.30;;;;;;;;;;6242425;22;20165;-89
2023/03/17 03:49:24;;;;;;;12.63;3.47;;;;;;;;;;6242743;22;20234;-91
2023/03/17 03:52:29;;;;;;;9.77;4.10;;;;;;;;;;6243546;23;20234;-92
2023/03/17 03:55:36;;;;;;;8.17;3.23;;;;;;;;;;6242675;23;20617;-92
2023/03/17 03:58:41;;;;;;;9.90;3.60;;;;;;;;;;6241959;23;20154;-90
2023/03/17 04:02:12;;;;;;;9.43;3.50;;;;;;;;;;6242106;22;20154;-90
2023/03/17 04:05:18;;;;;;;8.87;3.30;;;;;;;;;;6244791;22;20166;-92
2023/03/17 04:08:23;;;;;;;9.47;3.20;;;;;;;;;;6242468;23;20198;-92
2023/03/17 04:11:31;;;;;;;7.90;3.67;;;;;;;;;;6245354;23;20186;-88
2023/03/17 04:14:37;;;;;;;8.60;3.43;;;;;;;;;;6242163;22;20159;-91
2023/03/17 04:17:42;;;;;;;9.03;3.67;;;;;;;;;;6242311;22;20167;-90
2023/03/17 04:20:56;;;;;;;17.00;5.37;;;;;;;;;;6243640;23;20168;-93
2023/03/17 04:24:01;;;;;;;21.30;6.67;;;;;;;;;;6243459;23;20189;-89
2023/03/17 04:27:09;;;;;;;23.40;6.67;;;;;;;;;;6246772;23;20166;-87
2023/03/17 04:30:15;;;;;;;11.57;4.13;;;;;;;;;;6244765;22;20178;-89
2023/03/17 04:33:23;;;;;;;15.47;4.43;;;;;;;;;;6246104;22;20159;-90
2023/03/17 04:36:29;;;;;;;10.93;3.93;;;;;;;;;;6243176;23;20186;-89
2023/03/17 04:39:34;;;;;;;9.57;4.03;;;;;;;;;;6244291;23;20165;-90
2023/03/17 04:42:41;;;;;;;9.60;3.67;;;;;;;;;;6243795;23;20253;-92
2023/03/17 04:45:46;;;;;;;11.87;3.43;;;;;;;;;;6243992;22;20152;-93
2023/03/17 04:48:51;;;;;;;10.07;3.43;;;;;;;;;;6244237;22;20198;-91
2023/03/17 04:51:56;;;;;;;25.17;3.93;;;;;;;;;;6243715;23;20166;-93
2023/03/17 04:55:01;;;;;;;10.03;3.37;;;;;;;;;;6244501;23;20166;-92
2023/03/17 04:58:08;;;;;;;8.40;3.17;;;;;;;;;;6244398;23;20230;-89
2023/03/17 05:01:48;;;;;;;9.90;3.30;;;;;;;;;;6244759;22;20162;-91
2023/03/17 05:04:54;;;;;;;10.93;3.27;;;;;;;;;;6245917;22;20174;-91
2023/03/17 05:08:00;;;;;;;10.60;3.00;;;;;;;;;;6246010;23;20539;-90
2023/03/17 05:11:06;;;;;;;6.70;3.40;;;;;;;;;;6246820;23;20221;-91
2023/03/17 05:14:13;;;;;;;8.37;3.53;;;;;;;;;;6248577;22;20151;-91
2023/03/17 05:17:19;;;;;;;9.40;4.30;;;;;;;;;;6246952;22;20165;-87
2023/03/17 05:20:27;;;;;;;10.77;4.13;;;;;;;;;;6264214;22;20198;-90
2023/03/17 05:23:32;;;;;;;8.83;3.73;;;;;;;;;;6245444;23;20229;-90
2023/03/17 05:26:38;;;;;;;8.00;3.57;;;;;;;;;;6246228;23;20159;-89
2023/03/17 05:29:47;;;;;;;11.60;3.97;;;;;;;;;;6246043;22;20258;-88
2023/03/17 05:32:53;;;;;;;8.20;3.70;;;;;;;;;;6245198;22;20171;-90
2023/03/17 05:35:59;;;;;;;9.83;4.00;;;;;;;;;;6246970;23;20166;-91
2023/03/17 05:39:04;;;;;;;9.50;3.53;;;;;;;;;;6246806;23;20253;-90
2023/03/17 05:42:19;;;;;;;9.03;3.40;;;;;;;;;;6246069;23;20178;-94
2023/03/17 05:45:27;;;;;;;8.77;3.50;;;;;;;;;;6245593;22;20159;-91
2023/03/17 05:48:32;;;;;;;9.40;3.50;;;;;;;;;;6246435;22;20150;-89
2023/03/17 05:51:38;;;;;;;8.03;3.47;;;;;;;;;;6247059;23;20542;-91
2023/03/17 05:54:43;;;;;;;12.23;4.00;;;;;;;;;;6246517;23;20173;-90
2023/03/17 05:57:50;;;;;;;11.17;3.77;;;;;;;;;;6244664;23;20215;-91
2023/03/17 06:00:59;;;;;;;11.27;4.00;;;;;;;;;;6243734;23;20150;-88
2023/03/17 06:04:05;;;;;;;18.80;4.80;;;;;;;;;;6244698;22;20169;-92
2023/03/17 06:07:13;;;;;;;11.60;4.20;;;;;;;;;;6246425;22;20213;-89
2023/03/17 06:10:19;;;;;;;20.20;4.20;;;;;;;;;;6245671;23;20194;-92
2023/03/17 06:13:25;;;;;;;14.07;4.17;;;;;;;;;;6245946;23;20175;-88
2023/03/17 08:08:00;;;;;;;10.33;4.03;;;;;;;;;;6261720;22;20245;-87
2023/03/17 08:11:07;;;;;;;8.50;3.53;;;;;;;;;;6295954;22;20173;-90
2023/03/17 08:14:13;;;;;;;11.17;4.67;;;;;;;;;;6275580;22;20238;-90
2023/03/17 08:17:25;;;;;;;14.27;4.73;;;;;;;;;;6292608;22;20185;-91
2023/03/17 08:20:32;;;;;;;9.27;3.90;;;;;;;;;;6292368;22;20233;-91
2023/03/17 08:23:39;;;;;;;15.20;4.50;;;;;;;;;;6293158;22;20166;-90
2023/03/17 08:26:49;;;;;;;14.27;4.73;;;;;;;;;;6295014;22;20169;-90
2023/03/17 08:29:54;;;;;;;10.93;4.57;;;;;;;;;;6294559;22;20261;-91
2023/03/17 08:33:00;;;;;;;11.30;4.13;;;;;;;;;;6294767;22;20166;-88
2023/03/17 08:36:08;;;;;;;15.17;4.80;;;;;;;;;;6278469;22;20161;-91
2023/03/17 08:39:16;;;;;;;10.53;2.90;;;;;;;;;;6293880;22;20169;-90
2023/03/17 08:42:21;;;;;;;5.17;2.60;;;;;;;;;;6293484;22;20170;-92
2023/03/17 08:45:26;;;;;;;8.80;2.87;;;;;;;;;;6293999;22;20165;-94
2023/03/17 08:48:34;;;;;;;15.13;6.27;;;;;;;;;;6274445;22;20222;-90
2023/03/17 08:51:40;;;;;;;12.38;3.25;;;;;;;;;;6293931;22;20169;-91
2023/03/17 08:54:47;;;;;;;12.27;3.00;;;;;;;;;;6291849;22;20215;-90
2023/03/17 08:57:54;;;;;;;6.45;2.40;;;;;;;;;;6292072;22;20204;-89
2023/03/17 09:04:19;;;;;;;19.85;2.60;;;;;;;;;;6273710;22;20161;-92
2023/03/17 09:07:24;;;;;;;7.55;2.13;;;;;;;;;;6272512;22;20189;-92
2023/03/17 09:10:32;;;;;;;4.03;2.00;;;;;;;;;;6292997;22;20201;-90
2023/03/17 09:13:40;;;;;;;6.68;2.40;;;;;;;;;;6291864;22;20234;-92
2023/03/17 09:16:47;;;;;;;5.35;1.80;;;;;;;;;;6293322;22;20157;-91
2023/03/17 09:20:06;;;;;;;5.32;2.10;;;;;;;;;;6292089;22;20173;-90
2023/03/17 09:23:13;;;;;;;4.25;2.00;;;;;;;;;;6292466;22;20165;-91
2023/03/17 09:26:23;;;;;;;8.65;2.28;;;;;;;;;;6291659;22;20218;-91
2023/03/17 09:29:29;;;;;;;18.48;2.70;;;;;;;;;;6292405;22;20291;-91
2023/03/17 09:32:34;;;;;;;5.60;1.90;;;;;;;;;;6292950;22;20169;-90
2023/03/17 09:35:43;;;;;;;13.88;2.60;;;;;;;;;;6276708;22;20166;-92
2023/03/17 09:38:53;;;;;;;5.70;1.90;;;;;;;;;;6274236;22;20162;-90
2023/03/17 09:42:07;;;;;;;5.55;1.90;;;;;;;;;;6291828;22;20226;-93
2023/03/17 09:45:19;;;;;;;5.60;1.67;;;;;;;;;;6275536;22;20162;-92
2023/03/17 09:48:30;;;;;;;12.90;2.15;;;;;;;;;;6291950;22;20169;-92
2023/03/17 09:51:36;;;;;;;4.72;1.60;;;;;;;;;;6291830;22;20812;-90
2023/03/17 09:54:42;;;;;;;5.38;1.80;;;;;;;;;;6292477;22;20180;-89
2023/03/17 09:57:51;;;;;;;4.55;1.75;;;;;;;;;;6289903;22;20186;-92
2023/03/17 10:00:57;;;;;;;13.30;4.10;;;;;;;;;;6291065;22;20162;-91
2023/03/17 10:04:03;;;;;;;8.93;2.90;;;;;;;;;;6292389;22;20177;-93
2023/03/17 10:07:14;;;;;;;5.30;2.65;;;;;;;;;;6291742;22;20217;-92
2023/03/17 10:10:22;;;;;;;3.30;1.77;;;;;;;;;;6293355;22;20177;-92
2023/03/17 10:13:36;;;;;;;3.80;1.50;;;;;;;;;;6292351;22;20590;-94
2023/03/17 10:16:45;;;;;;;8.65;2.42;;;;;;;;;;6292799;22;20150;-91
2023/03/17 10:20:15;;;;;;;3.65;1.60;;;;;;;;;;6292063;22;20168;-93
2023/03/17 10:23:26;;;;;;;5.57;1.63;;;;;;;;;;6273524;22;20169;-91
2023/03/17 10:26:38;;;;;;;6.40;1.67;;;;;;;;;;6291104;22;20166;-91
2023/03/17 10:33:05;;;;;;;10.50;2.95;;;;;;;;;;6275004;22;20169;-93
2023/03/17 10:39:31;;;;;;;14.63;6.32;;;;;;;;;;6271715;22;20189;-92
2023/03/17 10:42:46;;;;;;;16.10;4.82;;;;;;;;;;6291404;22;20148;-91
2023/03/17 10:45:59;;;;;;;9.10;4.82;;;;;;;;;;6292458;22;20192;-91
2023/03/17 10:49:09;;;;;;;7.93;3.25;;;;;;;;;;6271592;22;20604;-90
2023/03/17 10:52:28;;;;;;;13.52;5.35;;;;;;;;;;6290217;22;20629;-89
2023/03/17 10:55:39;;;;;;;14.57;6.55;;;;;;;;;;6290865;22;20204;-92
2023/03/17 10:58:47;;;;;;;6.10;2.30;;;;;;;;;;6291119;22;20208;-89
2023/03/17 11:01:56;;;;;;;5.90;2.13;;;;;;;;;;6289995;22;20204;-91
2023/03/17 11:05:04;;;;;;;8.38;2.13;;;;;;;;;;6291064;22;20229;-91
2023/03/17 11:08:17;;;;;;;10.73;2.47;;;;;;;;;;6289662;22;20188;-91
2023/03/17 11:11:24;;;;;;;3.80;1.85;;;;;;;;;;6291993;22;20170;-90
2023/03/17 11:14:30;;;;;;;5.30;2.20;;;;;;;;;;6292930;22;20172;-91
2023/03/17 11:17:55;;;;;;;4.78;1.90;;;;;;;;;;6292732;22;20177;-91
2023/03/17 11:24:40;;;;;;;4.22;1.70;;;;;;;;;;6290351;22;20204;-91
2023/03/17 11:27:47;;;;;;;8.43;2.10;;;;;;;;;;6289269;22;20174;-91
2023/03/17 11:30:59;;;;;;;3.25;1.60;;;;;;;;;;6291429;22;20156;-92
2023/03/17 11:34:07;;;;;;;7.03;2.70;;;;;;;;;;6291515;22;20501;-91
2023/03/17 11:37:24;;;;;;;6.47;2.70;;;;;;;;;;6294277;22;20153;-92
2023/03/17 11:40:34;;;;;;;7.63;2.25;;;;;;;;;;6291776;22;20192;-90
2023/03/17 11:43:45;;;;;;;8.10;2.42;;;;;;;;;;6272654;22;20165;-90
2023/03/17 11:46:53;;;;;;;4.70;1.95;;;;;;;;;;6292688;22;20261;-92
2023/03/17 11:50:02;;;;;;;5.88;2.75;;;;;;;;;;6292173;22;20169;-91
2023/03/17 11:53:22;;;;;;;6.45;2.30;;;;;;;;;;6293974;22;20149;-92
2023/03/17 11:56:32;;;;;;;4.15;2.05;;;;;;;;;;6293144;22;20218;-91
2023/03/17 11:59:45;;;;;;;4.30;2.28;;;;;;;;;;6296410;22;20173;-90
2023/03/17 12:02:55;;;;;;;9.95;2.60;;;;;;;;;;6278703;22;20192;-90
2023/03/17 12:06:04;;;;;;;6.78;2.20;;;;;;;;;;6275958;22;20182;-93
2023/03/17 12:09:19;;;;;;;5.43;2.40;;;;;;;;;;6293642;22;20184;-90
2023/03/17 12:12:31;;;;;;;7.38;2.78;;;;;;;;;;6293968;22;20162;-89
2023/03/17 12:15:38;;;;;;;7.13;3.08;;;;;;;;;;6290044;22;20165;-90
2023/03/17 12:18:50;;;;;;;17.15;7.78;;;;;;;;;;6292711;22;20158;-91
2023/03/17 12:26:12;;;;;;;11.10;3.20;;;;;;;;;;6293101;22;20178;-90
2023/03/17 12:29:26;;;;;;;6.32;2.63;;;;;;;;;;6292134;22;20162;-90
2023/03/17 12:32:37;;;;;;;6.80;2.80;;;;;;;;;;6274506;22;20157;-92
2023/03/17 12:35:42;;;;;;;6.85;2.10;;;;;;;;;;6291939;22;20158;-91
2023/03/17 12:38:52;;;;;;;7.60;2.22;;;;;;;;;;6291946;22;20169;-90
2023/03/17 12:42:10;;;;;;;6.28;2.50;;;;;;;;;;6276213;22;20265;-90
2023/03/17 12:45:34;;;;;;;4.78;2.45;;;;;;;;;;6293905;22;20367;-90
2023/03/17 16:49:14;;;;;;;12.00;3.72;;;;;;;;;;6248309;22;20210;-89
2023/03/17 16:52:22;;;;;;;16.98;3.88;;;;;;;;;;6245462;22;20213;-92
2023/03/17 16:55:28;;;;;;;9.65;3.58;;;;;;;;;;6242551;22;20154;-89
2023/03/17 16:58:36;;;;;;;10.73;5.55;;;;;;;;;;6242930;23;20170;-91
2023/03/17 17:01:41;;;;;;;13.85;5.60;;;;;;;;;;6261256;22;20202;-91
2023/03/17 17:04:47;;;;;;;18.05;4.28;;;;;;;;;;6244126;23;20166;-90
2023/03/17 17:07:54;;;;;;;11.98;3.90;;;;;;;;;;6253874;23;20166;-88
2023/03/17 17:10:59;;;;;;;8.43;3.08;;;;;;;;;;6254300;23;20185;-89
2023/03/17 17:14:05;;;;;;;10.63;3.03;;;;;;;;;;6255027;23;20178;-90
2023/03/17 17:17:10;;;;;;;9.93;3.53;;;;;;;;;;6255044;23;20181;-91
2023/03/17 17:20:34;;;;;;;12.80;4.38;;;;;;;;;;6236955;22;20182;-88
2023/03/17 17:23:41;;;;;;;13.35;4.53;;;;;;;;;;6236947;23;20179;-91
2023/03/17 17:26:45;;;;;;;9.05;3.97;;;;;;;;;;6236945;23;20171;-91
2023/03/17 17:29:53;;;;;;;13.57;5.90;;;;;;;;;;6260100;22;20174;-88
2023/03/17 17:32:59;;;;;;;22.33;7.53;;;;;;;;;;6237981;22;20221;-90
2023/03/17 17:36:06;;;;;;;13.18;5.50;;;;;;;;;;6258298;22;20153;-89
2023/03/17 17:39:14;;;;;;;15.43;5.47;;;;;;;;;;6259140;22;20626;-91
2023/03/17 17:42:20;;;;;;;17.23;7.25;;;;;;;;;;6238587;22;20194;-88
2023/03/17 17:45:25;;;;;;;17.23;6.30;;;;;;;;;;6256445;23;20233;-91
2023/03/17 17:48:31;;;;;;;16.88;6.82;;;;;;;;;;6255058;23;20170;-90
2023/03/17 17:51:37;;;;;;;19.98;6.47;;;;;;;;;;6257354;23;20193;-89
2023/03/17 17:54:43;;;;;;;18.15;6.15;;;;;;;;;;6239201;23;20170;-91
2023/03/17 17:57:50;;;;;;;13.95;5.68;;;;;;;;;;6255162;23;20497;-91
2023/03/17 18:00:56;;;;;;;14.02;5.30;;;;;;;;;;6220585;23;20240;-89
2023/03/17 18:04:02;;;;;;;15.55;6.55;;;;;;;;;;6255535;23;20173;-89
2023/03/17 18:07:07;;;;;;;12.38;6.10;;;;;;;;;;6256163;23;20215;-89
2023/03/17 18:10:16;;;;;;;14.23;5.68;;;;;;;;;;6256525;23;20166;-91
2023/03/17 18:13:21;;;;;;;13.70;5.82;;;;;;;;;;6257400;23;20170;-91
2023/03/17 18:16:27;;;;;;;11.05;5.25;;;;;;;;;;6238432;23;20589;-91
2023/03/17 18:19:32;;;;;;;18.58;6.90;;;;;;;;;;6239234;23;20601;-89
2023/03/17 18:22:43;;;;;;;15.77;5.55;;;;;;;;;;6255579;23;20198;-90
2023/03/17 18:25:50;;;;;;;12.65;5.43;;;;;;;;;;6256672;22;20166;-91
2023/03/17 18:28:56;;;;;;;15.50;5.47;;;;;;;;;;6253779;23;20182;-90
2023/03/17 18:32:01;;;;;;;27.25;6.55;;;;;;;;;;6254857;23;20207;-91
2023/03/17 18:35:09;;;;;;;24.55;8.07;;;;;;;;;;6254861;23;20170;-89
2023/03/17 18:38:15;;;;;;;17.88;7.75;;;;;;;;;;6238508;23;20293;-92
2023/03/17 18:41:21;;;;;;;18.80;7.93;;;;;;;;;;6254777;23;20237;-90
2023/03/17 18:44:26;;;;;;;18.73;7.20;;;;;;;;;;6239280;23;20182;-91
2023/03/17 18:47:31;;;;;;;17.90;8.35;;;;;;;;;;6254949;22;20222;-91
2023/03/17 18:50:37;;;;;;;25.75;11.75;;;;;;;;;;6238905;23;20193;-91
2023/03/17 18:53:42;;;;;;;19.05;8.25;;;;;;;;;;6256369;23;20170;-91
2023/03/17 18:56:49;;;;;;;18.00;8.02;;;;;;;;;;6256554;23;20630;-89
2023/03/17 18:59:54;;;;;;;22.60;8.07;;;;;;;;;;6256332;22;20248;-91
2023/03/17 19:02:59;;;;;;;22.02;7.97;;;;;;;;;;6237876;23;20169;-88
2023/03/17 19:06:09;;;;;;;22.15;8.23;;;;;;;;;;6256131;22;20241;-91
2023/03/17 19:09:13;;;;;;;25.13;11.65;;;;;;;;;;6256283;22;20217;-90
2023/03/17 19:12:21;;;;;;;20.77;6.78;;;;;;;;;;6256605;22;20194;-91
2023/03/17 19:15:26;;;;;;;22.25;8.80;;;;;;;;;;6255568;22;20249;-92
2023/03/17 19:18:32;;;;;;;19.65;7.53;;;;;;;;;;6256669;22;20174;-92
2023/03/17 19:22:05;;;;;;;16.35;7.00;;;;;;;;;;6237433;23;20194;-88
2023/03/17 19:25:10;;;;;;;20.23;8.35;;;;;;;;;;6256378;23;20198;-91
2023/03/17 19:28:17;;;;;;;15.20;6.53;;;;;;;;;;6239645;23;20222;-88
2023/03/17 19:31:23;;;;;;;16.15;6.68;;;;;;;;;;6240239;23;20166;-92
2023/03/17 19:34:28;;;;;;;14.85;5.82;;;;;;;;;;6256207;22;20170;-89
2023/03/17 19:37:34;;;;;;;12.02;5.97;;;;;;;;;;6241515;23;20174;-90
2023/03/17 19:40:40;;;;;;;14.57;6.30;;;;;;;;;;6257011;23;20257;-89
2023/03/17 19:43:46;;;;;;;15.45;6.10;;;;;;;;;;6258465;22;20198;-91
2023/03/17 19:46:51;;;;;;;13.07;5.57;;;;;;;;;;6258080;22;20171;-92
2023/03/17 19:49:57;;;;;;;14.10;5.72;;;;;;;;;;6260861;23;20206;-91
2023/03/17 19:53:03;;;;;;;12.32;6.03;;;;;;;;;;6241710;22;20166;-91
2023/03/17 19:56:09;;;;;;;14.05;6.05;;;;;;;;;;6257470;23;20186;-91
2023/03/17 19:59:18;;;;;;;15.27;6.28;;;;;;;;;;6257257;23;20278;-90
2023/03/17 20:06:16;;;;;;;16.83;7.47;;;;;;;;;;6257475;23;20218;-92
2023/03/17 20:09:21;;;;;;;18.23;8.75;;;;;;;;;;6257618;23;20169;-90
2023/03/17 20:12:26;;;;;;;26.95;12.30;;;;;;;;;;6260078;23;20170;-89
2023/03/17 20:15:41;;;;;;;18.67;7.80;;;;;;;;;;6260805;22;20171;-90
2023/03/17 20:18:46;;;;;;;19.10;7.45;;;;;;;;;;6243475;23;20174;-90
2023/03/17 20:21:54;;;;;;;19.05;6.85;;;;;;;;;;6258950;22;20262;-90
2023/03/17 20:24:59;;;;;;;14.05;6.90;;;;;;;;;;6257984;23;20194;-91
2023/03/17 20:28:04;;;;;;;17.98;6.10;;;;;;;;;;6257559;23;20171;-91
2023/03/17 20:31:11;;;;;;;14.30;6.60;;;;;;;;;;6257334;23;20231;-90
2023/03/17 20:34:17;;;;;;;16.00;6.45;;;;;;;;;;6260322;23;20237;-90
2023/03/17 20:37:23;;;;;;;18.20;6.60;;;;;;;;;;6258320;23;20174;-89
2023/03/17 20:40:29;;;;;;;15.38;5.75;;;;;;;;;;6238347;23;20174;-89
2023/03/17 20:43:36;;;;;;;14.73;6.63;;;;;;;;;;6258404;23;20166;-90
2023/03/17 20:46:43;;;;;;;16.00;5.70;;;;;;;;;;6256947;23;20174;-93
2023/03/17 20:49:49;;;;;;;13.75;5.50;;;;;;;;;;6257579;23;20197;-89
2023/03/17 20:52:54;;;;;;;15.52;6.13;;;;;;;;;;6256590;23;20217;-92
2023/03/17 20:56:00;;;;;;;14.83;6.10;;;;;;;;;;6256330;23;20178;-90
2023/03/17 20:59:05;;;;;;;15.90;6.90;;;;;;;;;;6256198;23;20218;-90
2023/03/17 21:02:36;;;;;;;13.77;5.47;;;;;;;;;;6237217;23;20171;-93
2023/03/17 21:05:43;;;;;;;33.70;16.03;;;;;;;;;;6259192;23;20182;-91
2023/03/17 21:08:49;;;;;;;15.40;6.23;;;;;;;;;;6257965;23;20170;-91
2023/03/17 21:11:55;;;;;;;13.77;6.43;;;;;;;;;;6257434;23;20190;-91
2023/03/17 21:15:00;;;;;;;14.17;6.60;;;;;;;;;;6259123;23;20174;-92
2023/03/17 21:18:06;;;;;;;11.33;4.93;;;;;;;;;;6256921;22;20182;-93
2023/03/17 21:21:26;;;;;;;12.17;5.23;;;;;;;;;;6259323;22;20194;-90
2023/03/17 21:24:32;;;;;;;10.93;5.23;;;;;;;;;;6257785;23;20244;-89
2023/03/17 21:27:38;;;;;;;14.20;5.53;;;;;;;;;;6255458;23;20166;-87
2023/03/17 21:30:43;;;;;;;11.57;5.47;;;;;;;;;;6238356;23;20172;-88
2023/03/17 21:33:53;;;;;;;18.13;5.60;;;;;;;;;;6254700;23;20640;-93
2023/03/17 21:37:00;;;;;;;12.57;5.93;;;;;;;;;;6255321;23;20165;-90
2023/03/17 21:40:06;;;;;;;14.27;5.90;;;;;;;;;;6256196;23;20174;-89
2023/03/17 21:43:12;;;;;;;12.40;5.33;;;;;;;;;;6241352;23;20213;-87
2023/03/17 21:46:17;;;;;;;13.03;5.30;;;;;;;;;;6259970;23;20166;-92
2023/03/17 21:49:23;;;;;;;14.47;5.20;;;;;;;;;;6260717;22;20162;-90
2023/03/17 21:52:30;;;;;;;11.47;5.20;;;;;;;;;;6260918;22;20190;-91
2023/03/17 21:55:35;;;;;;;16.53;7.20;;;;;;;;;;6258443;23;20167;-89
2023/03/17 21:58:40;;;;;;;24.30;9.60;;;;;;;;;;6257974;22;20166;-90
2023/03/17 22:02:19;;;;;;;11.13;5.70;;;;;;;;;;6258983;22;20181;-92
2023/03/17 22:05:25;;;;;;;13.30;5.17;;;;;;;;;;6258297;22;20170;-92
2023/03/17 22:08:33;;;;;;;13.03;5.13;;;;;;;;;;6238778;23;20193;-90
2023/03/17 22:11:38;;;;;;;17.83;8.53;;;;;;;;;;6258252;22;20273;-91
2023/03/17 22:14:44;;;;;;;12.83;5.50;;;;;;;;;;6258308;23;20153;-92
2023/03/17 22:17:50;;;;;;;10.67;5.27;;;;;;;;;;6258900;23;20174;-90
2023/03/17 22:21:00;;;;;;;10.43;5.23;;;;;;;;;;6259030;23;20167;-89
2023/03/17 22:24:07;;;;;;;10.43;4.90;;;;;;;;;;6256456;22;20170;-92
2023/03/17 22:27:13;;;;;;;17.33;8.47;;;;;;;;;;6257192;22;20221;-91
2023/03/17 22:30:19;;;;;;;15.33;6.77;;;;;;;;;;6257545;22;20193;-89
2023/03/17 22:33:23;;;;;;;22.60;8.90;;;;;;;;;;6258143;22;20261;-92
2023/03/17 22:36:29;;;;;;;15.23;6.43;;;;;;;;;;6258596;22;20162;-89
2023/03/17 22:39:35;;;;;;;13.73;5.47;;;;;;;;;;6256866;22;20190;-92
2023/03/17 22:42:41;;;;;;;9.43;4.90;;;;;;;;;;6257994;22;20162;-92
2023/03/17 22:45:48;;;;;;;12.03;4.63;;;;;;;;;;6256379;23;20221;-89
2023/03/17 22:48:54;;;;;;;13.80;5.40;;;;;;;;;;6256361;22;20162;-91
2023/03/17 22:51:59;;;;;;;19.03;6.00;;;;;;;;;;6256991;22;20285;-91
2023/03/17 22:55:07;;;;;;;13.43;5.70;;;;;;;;;;6257376;23;20174;-90
2023/03/17 22:58:12;;;;;;;11.53;5.43;;;;;;;;;;6256594;22;20286;-89
2023/03/17 23:01:50;;;;;;;13.07;5.90;;;;;;;;;;6255204;22;20235;-89
2023/03/17 23:04:56;;;;;;;14.23;5.60;;;;;;;;;;6257274;22;20170;-90
2023/03/17 23:08:02;;;;;;;13.53;5.60;;;;;;;;;;6256991;22;20166;-90
2023/03/17 23:11:10;;;;;;;16.40;5.53;;;;;;;;;;6256229;23;20163;-90
2023/03/17 23:14:15;;;;;;;16.30;7.00;;;;;;;;;;6257040;22;20213;-93
2023/03/17 23:17:20;;;;;;;11.30;5.60;;;;;;;;;;6239613;22;20167;-92
2023/03/17 23:20:28;;;;;;;18.63;5.43;;;;;;;;;;6256617;22;20214;-90
2023/03/17 23:23:34;;;;;;;15.33;5.20;;;;;;;;;;6257397;22;20167;-92
2023/03/17 23:26:42;;;;;;;11.57;5.53;;;;;;;;;;6257130;22;20179;-89
2023/03/17 23:29:47;;;;;;;13.73;5.60;;;;;;;;;;6241390;22;20215;-90
2023/03/17 23:32:53;;;;;;;13.80;6.27;;;;;;;;;;6241910;23;20191;-91
2023/03/17 23:35:59;;;;;;;17.03;6.20;;;;;;;;;;6260037;22;20209;-91
2023/03/17 23:39:04;;;;;;;18.70;6.40;;;;;;;;;;6243129;23;20270;-89
2023/03/17 23:42:11;;;;;;;15.50;6.37;;;;;;;;;;6242154;23;20218;-91
2023/03/17 23:45:17;;;;;;;17.17;6.10;;;;;;;;;;6258694;23;20174;-91
2023/03/17 23:48:22;;;;;;;18.70;6.17;;;;;;;;;;6241717;22;20202;-89
2023/03/17 23:51:27;;;;;;;12.53;5.60;;;;;;;;;;6259292;22;20676;-91
2023/03/17 23:54:32;;;;;;;13.23;5.50;;;;;;;;;;6259035;22;20516;-89
2023/03/17 23:57:40;;;;;;;13.13;6.10;;;;;;;;;;6258075;22;20205;-91
